sensor_id;sensor_type;location;lat;lon;timestamp;P1;durP1;ratioP1;P2;durP2;ratioP2
31206;SDS011;17834;52.992;8.856;2024-01-15T00:02:07;9.25;;;2.25;;
31206;SDS011;17834;52.992;8.856;2024-01-15T00:04:40;9.65;;;1.83;;
31206;SDS011;17834;52.992;8.856;2024-01-15T00:07:06;11.38;;;2.35;;
31206;SDS011;17834;52.992;8.856;2024-01-15T00:09:32;4.65;;;1.80;;
31206;SDS011;17834;52.992;8.856;2024-01-15T00:11:59;3.75;;;2.00;;
31206;SDS011;17834;52.992;8.856;2024-01-15T00:14:25;9.50;;;2.25;;
31206;SDS011;17834;52.992;8.856;2024-01-15T00:16:51;6.28;;;1.67;;
31206;SDS011;17834;52.992;8.856;2024-01-15T00:19:19;1.92;;;1.20;;
31206;SDS011;17834;52.992;8.856;2024-01-15T00:21:46;7.90;;;1.60;;
31206;SDS011;17834;52.992;8.856;2024-01-15T00:24:12;9.95;;;2.13;;
31206;SDS011;17834;52.992;8.856;2024-01-15T00:26:38;4.78;;;1.50;;
31206;SDS011;17834;52.992;8.856;2024-01-15T00:29:04;5.82;;;1.52;;
31206;SDS011;17834;52.992;8.856;2024-01-15T00:31:30;10.05;;;1.52;;
31206;SDS011;17834;52.992;8.856;2024-01-15T00:33:56;6.07;;;1.60;;
31206;SDS011;17834;52.992;8.856;2024-01-15T00:36:25;4.93;;;1.73;;
31206;SDS011;17834;52.992;8.856;2024-01-15T00:38:51;3.38;;;1.30;;
31206;SDS011;17834;52.992;8.856;2024-01-15T00:41:17;7.78;;;1.98;;
31206;SDS011;17834;52.992;8.856;2024-01-15T00:43:44;7.28;;;1.50;;
31206;SDS011;17834;52.992;8.856;2024-01-15T00:46:10;11.85;;;1.27;;
31206;SDS011;17834;52.992;8.856;2024-01-15T00:48:36;9.90;;;2.00;;
31206;SDS011;17834;52.992;8.856;2024-01-15T00:51:04;5.90;;;2.08;;
31206;SDS011;17834;52.992;8.856;2024-01-15T00:53:30;5.07;;;1.63;;
31206;SDS011;17834;52.992;8.856;2024-01-15T00:55:56;10.82;;;1.70;;
31206;SDS011;17834;52.992;8.856;2024-01-15T00:58:22;7.70;;;2.33;;
31206;SDS011;17834;52.992;8.856;2024-01-15T01:00:48;8.07;;;1.70;;
31206;SDS011;17834;52.992;8.856;2024-01-15T01:03:14;12.95;;;1.38;;
31206;SDS011;17834;52.992;8.856;2024-01-15T01:05:40;9.95;;;1.77;;
31206;SDS011;17834;52.992;8.856;2024-01-15T01:08:05;3.65;;;1.15;;
31206;SDS011;17834;52.992;8.856;2024-01-15T01:10:31;10.40;;;1.92;;
31206;SDS011;17834;52.992;8.856;2024-01-15T01:12:57;13.93;;;1.83;;
31206;SDS011;17834;52.992;8.856;2024-01-15T01:15:23;6.82;;;1.27;;
31206;SDS011;17834;52.992;8.856;2024-01-15T01:17:49;13.50;;;1.40;;
31206;SDS011;17834;52.992;8.856;2024-01-15T01:20:15;15.30;;;1.75;;
31206;SDS011;17834;52.992;8.856;2024-01-15T01:22:41;7.57;;;1.73;;
31206;SDS011;17834;52.992;8.856;2024-01-15T01:25:07;4.07;;;1.23;;
31206;SDS011;17834;52.992;8.856;2024-01-15T01:27:34;5.20;;;1.38;;
31206;SDS011;17834;52.992;8.856;2024-01-15T01:30:00;4.97;;;1.30;;
31206;SDS011;17834;52.992;8.856;2024-01-15T01:32:26;5.00;;;1.00;;
31206;SDS011;17834;52.992;8.856;2024-01-15T01:34:52;10.80;;;1.45;;
31206;SDS011;17834;52.992;8.856;2024-01-15T01:37:19;8.98;;;1.70;;
31206;SDS011;17834;52.992;8.856;2024-01-15T01:39:45;2.95;;;1.10;;
31206;SDS011;17834;52.992;8.856;2024-01-15T01:42:11;4.75;;;1.08;;
31206;SDS011;17834;52.992;8.856;2024-01-15T01:44:37;5.82;;;1.08;;
31206;SDS011;17834;52.992;8.856;2024-01-15T01:47:03;3.72;;;1.35;;
31206;SDS011;17834;52.992;8.856;2024-01-15T01:49:29;8.32;;;1.50;;
31206;SDS011;17834;52.992;8.856;2024-01-15T01:51:57;5.72;;;1.65;;
31206;SDS011;17834;52.992;8.856;2024-01-15T01:54:23;6.68;;;1.13;;
31206;SDS011;17834;52.992;8.856;2024-01-15T01:56:49;4.95;;;1.45;;
31206;SDS011;17834;52.992;8.856;2024-01-15T01:59:15;7.00;;;1.48;;
31206;SDS011;17834;52.992;8.856;2024-01-15T02:01:41;4.05;;;1.30;;
31206;SDS011;17834;52.992;8.856;2024-01-15T02:04:07;2.42;;;1.00;;
31206;SDS011;17834;52.992;8.856;2024-01-15T02:06:34;4.90;;;1.33;;
31206;SDS011;17834;52.992;8.856;2024-01-15T02:09:01;4.10;;;1.10;;
31206;SDS011;17834;52.992;8.856;2024-01-15T02:11:27;9.07;;;2.70;;
31206;SDS011;17834;52.992;8.856;2024-01-15T02:13:53;5.22;;;1.80;;
31206;SDS011;17834;52.992;8.856;2024-01-15T02:16:20;10.77;;;2.00;;
31206;SDS011;17834;52.992;8.856;2024-01-15T02:18:46;7.60;;;1.52;;
31206;SDS011;17834;52.992;8.856;2024-01-15T02:21:12;6.80;;;1.42;;
31206;SDS011;17834;52.992;8.856;2024-01-15T02:23:38;2.38;;;1.20;;
31206;SDS011;17834;52.992;8.856;2024-01-15T02:26:04;4.60;;;1.48;;
31206;SDS011;17834;52.992;8.856;2024-01-15T02:28:30;6.97;;;2.13;;
31206;SDS011;17834;52.992;8.856;2024-01-15T02:30:56;5.40;;;1.30;;
31206;SDS011;17834;52.992;8.856;2024-01-15T02:33:22;10.40;;;1.50;;
31206;SDS011;17834;52.992;8.856;2024-01-15T02:35:48;8.55;;;2.03;;
31206;SDS011;17834;52.992;8.856;2024-01-15T02:38:17;4.03;;;1.17;;
31206;SDS011;17834;52.992;8.856;2024-01-15T02:40:44;20.30;;;2.58;;
31206;SDS011;17834;52.992;8.856;2024-01-15T02:43:10;7.45;;;1.38;;
31206;SDS011;17834;52.992;8.856;2024-01-15T02:45:37;3.80;;;1.20;;
31206;SDS011;17834;52.992;8.856;2024-01-15T02:48:03;12.70;;;2.13;;
31206;SDS011;17834;52.992;8.856;2024-01-15T02:50:29;9.38;;;1.65;;
31206;SDS011;17834;52.992;8.856;2024-01-15T02:52:55;6.63;;;1.80;;
31206;SDS011;17834;52.992;8.856;2024-01-15T02:55:20;5.25;;;1.70;;
31206;SDS011;17834;52.992;8.856;2024-01-15T02:57:46;5.32;;;1.67;;
31206;SDS011;17834;52.992;8.856;2024-01-15T03:00:12;2.38;;;1.25;;
31206;SDS011;17834;52.992;8.856;2024-01-15T03:02:39;2.75;;;1.05;;
31206;SDS011;17834;52.992;8.856;2024-01-15T03:05:06;11.07;;;1.83;;
31206;SDS011;17834;52.992;8.856;2024-01-15T03:07:32;8.25;;;1.52;;
31206;SDS011;17834;52.992;8.856;2024-01-15T03:09:58;5.47;;;1.42;;
31206;SDS011;17834;52.992;8.856;2024-01-15T03:12:24;3.03;;;0.82;;
31206;SDS011;17834;52.992;8.856;2024-01-15T03:14:50;3.55;;;1.42;;
31206;SDS011;17834;52.992;8.856;2024-01-15T03:17:16;4.70;;;1.17;;
31206;SDS011;17834;52.992;8.856;2024-01-15T03:19:42;11.27;;;2.70;;
31206;SDS011;17834;52.992;8.856;2024-01-15T03:22:08;2.90;;;1.48;;
31206;SDS011;17834;52.992;8.856;2024-01-15T03:24:34;13.25;;;2.38;;
31206;SDS011;17834;52.992;8.856;2024-01-15T03:27:00;13.40;;;1.50;;
31206;SDS011;17834;52.992;8.856;2024-01-15T03:29:26;4.95;;;1.15;;
31206;SDS011;17834;52.992;8.856;2024-01-15T03:31:52;3.25;;;1.35;;
31206;SDS011;17834;52.992;8.856;2024-01-15T03:34:18;9.85;;;1.67;;
31206;SDS011;17834;52.992;8.856;2024-01-15T03:36:44;2.30;;;0.90;;
31206;SDS011;17834;52.992;8.856;2024-01-15T03:39:10;3.78;;;1.20;;
31206;SDS011;17834;52.992;8.856;2024-01-15T03:41:36;11.73;;;1.83;;
31206;SDS011;17834;52.992;8.856;2024-01-15T03:44:02;2.92;;;1.48;;
31206;SDS011;17834;52.992;8.856;2024-01-15T03:46:28;3.72;;;1.25;;
31206;SDS011;17834;52.992;8.856;2024-01-15T03:48:54;8.50;;;1.95;;
31206;SDS011;17834;52.992;8.856;2024-01-15T03:51:20;6.85;;;1.83;;
31206;SDS011;17834;52.992;8.856;2024-01-15T03:53:46;10.15;;;2.78;;
31206;SDS011;17834;52.992;8.856;2024-01-15T03:56:12;7.65;;;2.60;;
31206;SDS011;17834;52.992;8.856;2024-01-15T03:58:38;6.05;;;2.83;;
31206;SDS011;17834;52.992;8.856;2024-01-15T04:01:07;15.68;;;5.00;;
31206;SDS011;17834;52.992;8.856;2024-01-15T04:03:33;14.05;;;2.88;;
31206;SDS011;17834;52.992;8.856;2024-01-15T04:05:59;7.00;;;2.58;;
31206;SDS011;17834;52.992;8.856;2024-01-15T04:08:25;14.52;;;4.15;;
31206;SDS011;17834;52.992;8.856;2024-01-15T04:10:51;8.30;;;2.28;;
31206;SDS011;17834;52.992;8.856;2024-01-15T04:13:16;9.82;;;2.50;;
31206;SDS011;17834;52.992;8.856;2024-01-15T04:15:42;8.73;;;2.90;;
31206;SDS011;17834;52.992;8.856;2024-01-15T04:18:08;8.23;;;3.08;;
31206;SDS011;17834;52.992;8.856;2024-01-15T04:20:34;8.35;;;2.50;;
31206;SDS011;17834;52.992;8.856;2024-01-15T04:23:00;5.22;;;2.63;;
31206;SDS011;17834;52.992;8.856;2024-01-15T04:25:26;13.75;;;2.60;;
31206;SDS011;17834;52.992;8.856;2024-01-15T04:27:52;5.50;;;2.55;;
31206;SDS011;17834;52.992;8.856;2024-01-15T04:30:18;20.77;;;2.40;;
31206;SDS011;17834;52.992;8.856;2024-01-15T04:32:44;7.85;;;1.80;;
31206;SDS011;17834;52.992;8.856;2024-01-15T04:35:10;12.52;;;2.28;;
31206;SDS011;17834;52.992;8.856;2024-01-15T04:37:37;2.95;;;1.63;;
31206;SDS011;17834;52.992;8.856;2024-01-15T04:40:03;11.55;;;1.50;;
31206;SDS011;17834;52.992;8.856;2024-01-15T04:42:29;8.18;;;1.25;;
31206;SDS011;17834;52.992;8.856;2024-01-15T04:44:55;9.32;;;1.42;;
31206;SDS011;17834;52.992;8.856;2024-01-15T04:47:21;7.70;;;1.50;;
31206;SDS011;17834;52.992;8.856;2024-01-15T04:49:47;5.40;;;1.80;;
31206;SDS011;17834;52.992;8.856;2024-01-15T04:52:14;7.97;;;1.70;;
31206;SDS011;17834;52.992;8.856;2024-01-15T04:54:40;4.15;;;1.45;;
31206;SDS011;17834;52.992;8.856;2024-01-15T04:57:05;6.88;;;1.63;;
31206;SDS011;17834;52.992;8.856;2024-01-15T04:59:31;7.45;;;2.00;;
31206;SDS011;17834;52.992;8.856;2024-01-15T05:01:57;4.22;;;1.73;;
31206;SDS011;17834;52.992;8.856;2024-01-15T05:04:23;11.18;;;2.25;;
31206;SDS011;17834;52.992;8.856;2024-01-15T05:06:50;6.55;;;1.75;;
31206;SDS011;17834;52.992;8.856;2024-01-15T05:09:16;4.25;;;1.90;;
31206;SDS011;17834;52.992;8.856;2024-01-15T05:11:42;9.45;;;2.00;;
31206;SDS011;17834;52.992;8.856;2024-01-15T05:14:09;6.93;;;1.83;;
31206;SDS011;17834;52.992;8.856;2024-01-15T05:16:35;10.98;;;2.50;;
31206;SDS011;17834;52.992;8.856;2024-01-15T05:19:01;8.23;;;1.73;;
31206;SDS011;17834;52.992;8.856;2024-01-15T05:21:26;15.18;;;2.22;;
31206;SDS011;17834;52.992;8.856;2024-01-15T05:23:52;6.22;;;2.42;;
31206;SDS011;17834;52.992;8.856;2024-01-15T05:26:18;13.07;;;2.72;;
31206;SDS011;17834;52.992;8.856;2024-01-15T05:28:44;6.03;;;2.28;;
31206;SDS011;17834;52.992;8.856;2024-01-15T05:31:10;13.93;;;3.15;;
31206;SDS011;17834;52.992;8.856;2024-01-15T05:33:36;5.97;;;2.15;;
31206;SDS011;17834;52.992;8.856;2024-01-15T05:36:03;2.83;;;1.90;;
31206;SDS011;17834;52.992;8.856;2024-01-15T05:38:29;7.85;;;2.35;;
31206;SDS011;17834;52.992;8.856;2024-01-15T05:40:55;5.30;;;1.90;;
31206;SDS011;17834;52.992;8.856;2024-01-15T05:43:20;7.55;;;1.90;;
31206;SDS011;17834;52.992;8.856;2024-01-15T05:45:46;9.32;;;2.60;;
31206;SDS011;17834;52.992;8.856;2024-01-15T05:48:12;4.38;;;1.60;;
31206;SDS011;17834;52.992;8.856;2024-01-15T05:50:38;6.50;;;1.98;;
31206;SDS011;17834;52.992;8.856;2024-01-15T05:53:04;10.93;;;2.75;;
31206;SDS011;17834;52.992;8.856;2024-01-15T05:55:30;5.88;;;1.92;;
31206;SDS011;17834;52.992;8.856;2024-01-15T05:57:56;12.13;;;2.47;;
31206;SDS011;17834;52.992;8.856;2024-01-15T06:00:22;8.75;;;1.95;;
31206;SDS011;17834;52.992;8.856;2024-01-15T06:02:48;4.93;;;1.90;;
31206;SDS011;17834;52.992;8.856;2024-01-15T06:05:14;7.18;;;1.88;;
31206;SDS011;17834;52.992;8.856;2024-01-15T06:07:41;6.13;;;2.60;;
31206;SDS011;17834;52.992;8.856;2024-01-15T06:10:07;10.27;;;2.67;;
31206;SDS011;17834;52.992;8.856;2024-01-15T06:12:33;7.70;;;2.38;;
31206;SDS011;17834;52.992;8.856;2024-01-15T06:14:59;6.72;;;2.72;;
31206;SDS011;17834;52.992;8.856;2024-01-15T06:17:25;10.02;;;2.65;;
31206;SDS011;17834;52.992;8.856;2024-01-15T06:19:51;6.32;;;2.63;;
31206;SDS011;17834;52.992;8.856;2024-01-15T06:22:17;10.85;;;3.00;;
31206;SDS011;17834;52.992;8.856;2024-01-15T06:24:43;5.32;;;2.15;;
31206;SDS011;17834;52.992;8.856;2024-01-15T06:27:09;7.85;;;1.90;;
31206;SDS011;17834;52.992;8.856;2024-01-15T06:29:37;10.63;;;1.92;;
31206;SDS011;17834;52.992;8.856;2024-01-15T06:32:04;7.35;;;2.08;;
31206;SDS011;17834;52.992;8.856;2024-01-15T06:34:30;8.35;;;2.30;;
31206;SDS011;17834;52.992;8.856;2024-01-15T06:36:56;7.20;;;2.90;;
31206;SDS011;17834;52.992;8.856;2024-01-15T06:39:21;8.90;;;2.90;;
31206;SDS011;17834;52.992;8.856;2024-01-15T06:41:47;9.10;;;2.40;;
31206;SDS011;17834;52.992;8.856;2024-01-15T06:44:13;8.27;;;2.60;;
31206;SDS011;17834;52.992;8.856;2024-01-15T06:46:43;11.23;;;2.15;;
31206;SDS011;17834;52.992;8.856;2024-01-15T06:49:09;4.22;;;1.65;;
31206;SDS011;17834;52.992;8.856;2024-01-15T06:51:36;3.92;;;1.77;;
31206;SDS011;17834;52.992;8.856;2024-01-15T06:54:02;10.50;;;2.08;;
31206;SDS011;17834;52.992;8.856;2024-01-15T06:56:27;4.72;;;2.15;;
31206;SDS011;17834;52.992;8.856;2024-01-15T06:58:53;6.13;;;1.83;;
31206;SDS011;17834;52.992;8.856;2024-01-15T07:01:19;8.73;;;2.70;;
31206;SDS011;17834;52.992;8.856;2024-01-15T07:03:46;6.00;;;2.00;;
31206;SDS011;17834;52.992;8.856;2024-01-15T07:06:12;3.90;;;1.95;;
31206;SDS011;17834;52.992;8.856;2024-01-15T07:08:39;5.10;;;1.60;;
31206;SDS011;17834;52.992;8.856;2024-01-15T07:11:05;2.63;;;1.38;;
31206;SDS011;17834;52.992;8.856;2024-01-15T07:13:31;3.08;;;1.40;;
31206;SDS011;17834;52.992;8.856;2024-01-15T07:15:58;7.40;;;1.75;;
31206;SDS011;17834;52.992;8.856;2024-01-15T07:18:24;4.43;;;1.45;;
31206;SDS011;17834;52.992;8.856;2024-01-15T07:20:50;5.15;;;1.30;;
31206;SDS011;17834;52.992;8.856;2024-01-15T07:23:16;2.88;;;1.52;;
31206;SDS011;17834;52.992;8.856;2024-01-15T07:25:42;6.15;;;1.25;;
31206;SDS011;17834;52.992;8.856;2024-01-15T07:28:08;5.78;;;1.60;;
31206;SDS011;17834;52.992;8.856;2024-01-15T07:30:34;8.07;;;2.05;;
31206;SDS011;17834;52.992;8.856;2024-01-15T07:33:00;4.15;;;1.30;;
31206;SDS011;17834;52.992;8.856;2024-01-15T07:35:26;8.35;;;1.75;;
31206;SDS011;17834;52.992;8.856;2024-01-15T07:37:52;8.77;;;1.85;;
31206;SDS011;17834;52.992;8.856;2024-01-15T07:40:18;5.25;;;1.83;;
31206;SDS011;17834;52.992;8.856;2024-01-15T07:42:44;3.25;;;1.83;;
31206;SDS011;17834;52.992;8.856;2024-01-15T07:45:10;5.15;;;1.60;;
31206;SDS011;17834;52.992;8.856;2024-01-15T07:47:36;6.13;;;1.75;;
31206;SDS011;17834;52.992;8.856;2024-01-15T07:50:02;4.18;;;1.25;;
31206;SDS011;17834;52.992;8.856;2024-01-15T07:52:29;6.13;;;1.70;;
31206;SDS011;17834;52.992;8.856;2024-01-15T07:54:55;5.78;;;1.50;;
31206;SDS011;17834;52.992;8.856;2024-01-15T07:57:21;2.55;;;1.90;;
31206;SDS011;17834;52.992;8.856;2024-01-15T07:59:47;5.00;;;1.17;;
31206;SDS011;17834;52.992;8.856;2024-01-15T08:02:13;0.77;;;0.77;;
31206;SDS011;17834;52.992;8.856;2024-01-15T08:04:39;2.85;;;1.00;;
31206;SDS011;17834;52.992;8.856;2024-01-15T08:07:05;5.30;;;1.30;;
31206;SDS011;17834;52.992;8.856;2024-01-15T08:09:34;2.22;;;1.10;;
31206;SDS011;17834;52.992;8.856;2024-01-15T08:12:00;3.83;;;1.02;;
31206;SDS011;17834;52.992;8.856;2024-01-15T08:14:27;5.05;;;1.20;;
31206;SDS011;17834;52.992;8.856;2024-01-15T08:16:52;6.20;;;1.20;;
31206;SDS011;17834;52.992;8.856;2024-01-15T08:19:18;1.10;;;1.00;;
31206;SDS011;17834;52.992;8.856;2024-01-15T08:21:45;5.03;;;1.20;;
31206;SDS011;17834;52.992;8.856;2024-01-15T08:24:11;3.35;;;1.00;;
31206;SDS011;17834;52.992;8.856;2024-01-15T08:26:37;1.63;;;1.02;;
31206;SDS011;17834;52.992;8.856;2024-01-15T08:29:03;4.05;;;1.30;;
31206;SDS011;17834;52.992;8.856;2024-01-15T08:31:29;1.30;;;0.93;;
31206;SDS011;17834;52.992;8.856;2024-01-15T08:33:55;7.50;;;2.17;;
31206;SDS011;17834;52.992;8.856;2024-01-15T08:36:21;6.20;;;1.90;;
31206;SDS011;17834;52.992;8.856;2024-01-15T08:38:47;10.32;;;1.30;;
31206;SDS011;17834;52.992;8.856;2024-01-15T08:41:13;5.55;;;1.40;;
31206;SDS011;17834;52.992;8.856;2024-01-15T08:43:39;2.67;;;1.40;;
31206;SDS011;17834;52.992;8.856;2024-01-15T08:46:05;5.15;;;1.98;;
31206;SDS011;17834;52.992;8.856;2024-01-15T08:48:32;2.35;;;1.50;;
31206;SDS011;17834;52.992;8.856;2024-01-15T08:50:58;3.67;;;1.85;;
31206;SDS011;17834;52.992;8.856;2024-01-15T08:53:24;11.50;;;1.98;;
31206;SDS011;17834;52.992;8.856;2024-01-15T08:55:50;5.53;;;2.00;;
31206;SDS011;17834;52.992;8.856;2024-01-15T08:58:16;9.52;;;2.10;;
31206;SDS011;17834;52.992;8.856;2024-01-15T09:00:42;9.77;;;1.98;;
31206;SDS011;17834;52.992;8.856;2024-01-15T09:03:08;7.78;;;2.30;;
31206;SDS011;17834;52.992;8.856;2024-01-15T09:05:34;5.05;;;1.92;;
31206;SDS011;17834;52.992;8.856;2024-01-15T09:08:00;14.27;;;2.03;;
31206;SDS011;17834;52.992;8.856;2024-01-15T09:10:26;8.43;;;1.77;;
31206;SDS011;17834;52.992;8.856;2024-01-15T09:12:52;6.40;;;1.83;;
31206;SDS011;17834;52.992;8.856;2024-01-15T09:15:18;11.32;;;2.25;;
31206;SDS011;17834;52.992;8.856;2024-01-15T09:17:45;6.10;;;1.73;;
31206;SDS011;17834;52.992;8.856;2024-01-15T09:20:11;6.55;;;1.80;;
31206;SDS011;17834;52.992;8.856;2024-01-15T09:22:40;10.25;;;2.20;;
31206;SDS011;17834;52.992;8.856;2024-01-15T09:25:07;4.57;;;1.80;;
31206;SDS011;17834;52.992;8.856;2024-01-15T09:27:34;6.38;;;1.88;;
31206;SDS011;17834;52.992;8.856;2024-01-15T09:30:01;5.90;;;1.73;;
31206;SDS011;17834;52.992;8.856;2024-01-15T09:32:27;3.15;;;1.70;;
31206;SDS011;17834;52.992;8.856;2024-01-15T09:34:53;6.03;;;2.25;;
31206;SDS011;17834;52.992;8.856;2024-01-15T09:37:20;7.55;;;1.95;;
31206;SDS011;17834;52.992;8.856;2024-01-15T09:39:46;3.53;;;2.05;;
31206;SDS011;17834;52.992;8.856;2024-01-15T09:42:13;4.53;;;2.35;;
31206;SDS011;17834;52.992;8.856;2024-01-15T09:44:40;9.60;;;3.17;;
31206;SDS011;17834;52.992;8.856;2024-01-15T09:47:06;8.27;;;3.50;;
31206;SDS011;17834;52.992;8.856;2024-01-15T09:49:32;8.38;;;3.50;;
31206;SDS011;17834;52.992;8.856;2024-01-15T09:51:57;10.20;;;3.55;;
31206;SDS011;17834;52.992;8.856;2024-01-15T09:54:23;11.73;;;3.30;;
31206;SDS011;17834;52.992;8.856;2024-01-15T09:56:49;11.43;;;3.13;;
31206;SDS011;17834;52.992;8.856;2024-01-15T09:59:15;8.32;;;3.47;;
31206;SDS011;17834;52.992;8.856;2024-01-15T10:01:43;10.18;;;3.88;;
31206;SDS011;17834;52.992;8.856;2024-01-15T10:04:10;7.85;;;3.58;;
31206;SDS011;17834;52.992;8.856;2024-01-15T10:06:37;9.57;;;3.20;;
31206;SDS011;17834;52.992;8.856;2024-01-15T10:09:04;8.27;;;2.95;;
31206;SDS011;17834;52.992;8.856;2024-01-15T10:11:30;8.65;;;3.63;;
31206;SDS011;17834;52.992;8.856;2024-01-15T10:13:56;7.80;;;2.80;;
31206;SDS011;17834;52.992;8.856;2024-01-15T10:16:22;5.60;;;2.90;;
31206;SDS011;17834;52.992;8.856;2024-01-15T10:18:48;10.32;;;3.83;;
31206;SDS011;17834;52.992;8.856;2024-01-15T10:21:14;5.18;;;2.58;;
31206;SDS011;17834;52.992;8.856;2024-01-15T10:23:40;6.55;;;2.70;;
31206;SDS011;17834;52.992;8.856;2024-01-15T10:26:06;5.00;;;2.70;;
31206;SDS011;17834;52.992;8.856;2024-01-15T10:28:32;4.15;;;2.20;;
31206;SDS011;17834;52.992;8.856;2024-01-15T10:30:58;8.82;;;1.75;;
31206;SDS011;17834;52.992;8.856;2024-01-15T10:33:24;7.35;;;1.90;;
31206;SDS011;17834;52.992;8.856;2024-01-15T10:35:51;4.07;;;1.75;;
31206;SDS011;17834;52.992;8.856;2024-01-15T10:38:22;7.88;;;1.88;;
31206;SDS011;17834;52.992;8.856;2024-01-15T10:40:52;4.70;;;1.85;;
31206;SDS011;17834;52.992;8.856;2024-01-15T10:43:18;6.28;;;2.42;;
31206;SDS011;17834;52.992;8.856;2024-01-15T10:45:50;8.00;;;2.65;;
31206;SDS011;17834;52.992;8.856;2024-01-15T10:48:17;11.60;;;3.33;;
31206;SDS011;17834;52.992;8.856;2024-01-15T10:50:44;8.00;;;3.00;;
31206;SDS011;17834;52.992;8.856;2024-01-15T10:53:11;8.02;;;2.83;;
31206;SDS011;17834;52.992;8.856;2024-01-15T10:55:37;6.70;;;2.50;;
31206;SDS011;17834;52.992;8.856;2024-01-15T10:58:04;8.43;;;2.78;;
31206;SDS011;17834;52.992;8.856;2024-01-15T11:00:30;6.95;;;2.47;;
31206;SDS011;17834;52.992;8.856;2024-01-15T11:02:56;4.43;;;2.15;;
31206;SDS011;17834;52.992;8.856;2024-01-15T11:05:22;7.13;;;2.88;;
31206;SDS011;17834;52.992;8.856;2024-01-15T11:07:48;9.15;;;2.78;;
31206;SDS011;17834;52.992;8.856;2024-01-15T11:11:00;10.75;;;2.58;;
31206;SDS011;17834;52.992;8.856;2024-01-15T11:16:01;7.03;;;1.70;;
31206;SDS011;17834;52.992;8.856;2024-01-15T11:18:40;6.68;;;2.50;;
31206;SDS011;17834;52.992;8.856;2024-01-15T11:21:26;6.97;;;2.60;;
31206;SDS011;17834;52.992;8.856;2024-01-15T11:23:55;6.28;;;2.10;;
31206;SDS011;17834;52.992;8.856;2024-01-15T11:26:32;3.60;;;2.05;;
31206;SDS011;17834;52.992;8.856;2024-01-15T11:29:10;10.63;;;2.42;;
31206;SDS011;17834;52.992;8.856;2024-01-15T11:34:19;5.40;;;1.73;;
31206;SDS011;17834;52.992;8.856;2024-01-15T11:41:52;4.75;;;2.47;;
31206;SDS011;17834;52.992;8.856;2024-01-15T11:44:20;6.40;;;2.90;;
31206;SDS011;17834;52.992;8.856;2024-01-15T11:46:57;5.90;;;2.15;;
31206;SDS011;17834;52.992;8.856;2024-01-15T11:52:15;9.48;;;2.97;;
31206;SDS011;17834;52.992;8.856;2024-01-15T11:54:46;4.18;;;2.35;;
31206;SDS011;17834;52.992;8.856;2024-01-15T11:57:33;8.20;;;1.77;;
31206;SDS011;17834;52.992;8.856;2024-01-15T12:00:05;4.57;;;1.83;;
31206;SDS011;17834;52.992;8.856;2024-01-15T12:02:33;5.97;;;1.67;;
31206;SDS011;17834;52.992;8.856;2024-01-15T12:04:59;10.82;;;1.88;;
31206;SDS011;17834;52.992;8.856;2024-01-15T12:07:24;2.55;;;1.50;;
31206;SDS011;17834;52.992;8.856;2024-01-15T12:09:49;4.57;;;1.45;;
31206;SDS011;17834;52.992;8.856;2024-01-15T12:12:19;8.82;;;1.80;;
31206;SDS011;17834;52.992;8.856;2024-01-15T12:15:00;4.13;;;1.30;;
31206;SDS011;17834;52.992;8.856;2024-01-15T12:17:25;2.92;;;1.17;;
31206;SDS011;17834;52.992;8.856;2024-01-15T12:19:51;4.32;;;1.23;;
31206;SDS011;17834;52.992;8.856;2024-01-15T12:22:17;7.95;;;1.70;;
31206;SDS011;17834;52.992;8.856;2024-01-15T12:24:42;3.72;;;2.00;;
31206;SDS011;17834;52.992;8.856;2024-01-15T12:27:08;4.85;;;1.80;;
31206;SDS011;17834;52.992;8.856;2024-01-15T12:29:34;8.55;;;2.22;;
31206;SDS011;17834;52.992;8.856;2024-01-15T12:31:59;10.00;;;2.90;;
31206;SDS011;17834;52.992;8.856;2024-01-15T12:34:28;5.28;;;2.00;;
31206;SDS011;17834;52.992;8.856;2024-01-15T12:36:56;8.00;;;2.63;;
31206;SDS011;17834;52.992;8.856;2024-01-15T12:39:22;3.13;;;1.80;;
31206;SDS011;17834;52.992;8.856;2024-01-15T12:41:49;6.95;;;2.63;;
31206;SDS011;17834;52.992;8.856;2024-01-15T12:44:14;10.40;;;2.80;;
31206;SDS011;17834;52.992;8.856;2024-01-15T12:46:40;11.95;;;3.72;;
31206;SDS011;17834;52.992;8.856;2024-01-15T12:49:05;9.18;;;3.47;;
31206;SDS011;17834;52.992;8.856;2024-01-15T12:51:34;10.70;;;3.75;;
31206;SDS011;17834;52.992;8.856;2024-01-15T12:53:59;12.15;;;4.22;;
31206;SDS011;17834;52.992;8.856;2024-01-15T12:56:25;10.65;;;3.90;;
31206;SDS011;17834;52.992;8.856;2024-01-15T12:58:50;8.25;;;3.83;;
31206;SDS011;17834;52.992;8.856;2024-01-15T13:01:16;10.57;;;3.92;;
31206;SDS011;17834;52.992;8.856;2024-01-15T13:03:41;9.65;;;3.80;;
31206;SDS011;17834;52.992;8.856;2024-01-15T13:06:07;10.52;;;3.58;;
31206;SDS011;17834;52.992;8.856;2024-01-15T13:08:32;7.65;;;3.10;;
31206;SDS011;17834;52.992;8.856;2024-01-15T13:10:58;10.07;;;3.55;;
31206;SDS011;17834;52.992;8.856;2024-01-15T13:13:23;10.95;;;3.47;;
31206;SDS011;17834;52.992;8.856;2024-01-15T13:15:49;7.57;;;3.38;;
31206;SDS011;17834;52.992;8.856;2024-01-15T13:18:15;13.07;;;3.65;;
31206;SDS011;17834;52.992;8.856;2024-01-15T13:20:41;9.65;;;4.25;;
31206;SDS011;17834;52.992;8.856;2024-01-15T13:23:06;7.85;;;3.20;;
31206;SDS011;17834;52.992;8.856;2024-01-15T13:25:32;8.82;;;4.03;;
31206;SDS011;17834;52.992;8.856;2024-01-15T13:28:00;5.53;;;3.45;;
31206;SDS011;17834;52.992;8.856;2024-01-15T13:30:27;7.25;;;3.22;;
31206;SDS011;17834;52.992;8.856;2024-01-15T13:32:52;7.07;;;3.30;;
31206;SDS011;17834;52.992;8.856;2024-01-15T13:35:19;6.85;;;3.08;;
31206;SDS011;17834;52.992;8.856;2024-01-15T13:37:44;5.05;;;2.08;;
31206;SDS011;17834;52.992;8.856;2024-01-15T13:40:10;3.53;;;2.25;;
31206;SDS011;17834;52.992;8.856;2024-01-15T13:42:41;10.93;;;2.30;;
31206;SDS011;17834;52.992;8.856;2024-01-15T13:45:07;2.70;;;1.60;;
31206;SDS011;17834;52.992;8.856;2024-01-15T13:47:33;5.32;;;1.77;;
31206;SDS011;17834;52.992;8.856;2024-01-15T13:49:58;2.67;;;1.65;;
31206;SDS011;17834;52.992;8.856;2024-01-15T13:52:24;5.40;;;1.63;;
31206;SDS011;17834;52.992;8.856;2024-01-15T13:54:49;2.65;;;1.40;;
31206;SDS011;17834;52.992;8.856;2024-01-15T13:57:15;2.28;;;1.23;;
31206;SDS011;17834;52.992;8.856;2024-01-15T13:59:41;2.05;;;1.05;;
31206;SDS011;17834;52.992;8.856;2024-01-15T14:02:07;2.13;;;1.17;;
31206;SDS011;17834;52.992;8.856;2024-01-15T14:04:32;1.92;;;1.25;;
31206;SDS011;17834;52.992;8.856;2024-01-15T14:06:58;4.55;;;1.38;;
31206;SDS011;17834;52.992;8.856;2024-01-15T14:09:23;1.77;;;1.08;;
31206;SDS011;17834;52.992;8.856;2024-01-15T14:11:50;2.10;;;1.10;;
31206;SDS011;17834;52.992;8.856;2024-01-15T14:14:15;1.77;;;1.20;;
31206;SDS011;17834;52.992;8.856;2024-01-15T14:16:42;1.92;;;1.33;;
31206;SDS011;17834;52.992;8.856;2024-01-15T14:19:07;7.63;;;1.40;;
31206;SDS011;17834;52.992;8.856;2024-01-15T14:21:34;1.40;;;1.17;;
31206;SDS011;17834;52.992;8.856;2024-01-15T14:24:00;1.05;;;0.90;;
31206;SDS011;17834;52.992;8.856;2024-01-15T14:26:26;2.20;;;1.17;;
31206;SDS011;17834;52.992;8.856;2024-01-15T14:28:51;2.35;;;1.13;;
31206;SDS011;17834;52.992;8.856;2024-01-15T14:31:17;1.80;;;1.30;;
31206;SDS011;17834;52.992;8.856;2024-01-15T14:33:42;4.60;;;1.15;;
31206;SDS011;17834;52.992;8.856;2024-01-15T14:36:08;3.38;;;1.40;;
31206;SDS011;17834;52.992;8.856;2024-01-15T14:38:33;6.03;;;1.63;;
31206;SDS011;17834;52.992;8.856;2024-01-15T14:40:59;3.92;;;1.33;;
31206;SDS011;17834;52.992;8.856;2024-01-15T14:43:25;6.00;;;1.35;;
31206;SDS011;17834;52.992;8.856;2024-01-15T14:45:51;5.82;;;2.03;;
31206;SDS011;17834;52.992;8.856;2024-01-15T14:48:16;1.65;;;1.15;;
31206;SDS011;17834;52.992;8.856;2024-01-15T14:50:42;1.70;;;1.33;;
31206;SDS011;17834;52.992;8.856;2024-01-15T14:53:07;2.80;;;1.30;;
31206;SDS011;17834;52.992;8.856;2024-01-15T14:55:33;6.40;;;1.23;;